This site, now in its 15th season, is a labour of love and fun from one of Ottawa's most avid time trialists and number crunchers. It adheres to and is permitted by the laws of Canada, promotes the objectives of every bicycle club whose results are shown, and is donated free of charge by myself for your enjoyment and usage. If you would like results from series you ride in to be shown here, give me (celia@drmath.ca) a shout!


Index Page
ATT OTT WTT AATT CFCTT VVVTT
Help resultformat:
Case-sensitive

OBC Open TT Series - 2008-Sep-11 - 15km (Rockliffe Pkwy) (EvtFactor = 0.9470)

Weather (18:00): Sunny. Temp.: 19C, Humidity: 45%, Dew Point: 7C, Wind: SE 9km/h, Pressure: 102.4kPa, Visibility: 24km.
Weather (19:00): Mainly Sunny. Temp.: 17C, Humidity: 55%, Dew Point: 8C, Wind: ESE 5km/h, Pressure: 102.4kPa, Visibility: 24km.
Weather (20:00): Mainly Clear. Temp.: 14C, Humidity: 68%, Dew Point: 8C, Wind: SE 5km/h, Pressure: 102.4kPa, Visibility: 24km.

Send photos with description (when/where/what) of yourself on or off of bike to celia@drmath.ca

These results were first posted on the OBC site circa 21:00 on 2008-Sep-11 and are available here for your added pleasure and analysis.

The cool temperature and high air pressure didn't make this an easy night, but still 14 out of the 63 who had ridden an OTT earlier in the season managed to equal or better their previous 2008 OTT best, while ten equalled or improved upon their previous 15km database best. Note that Craig McHugh's huge improvement was due to the fact that his only other previous ride was the season-opening frigid and blustery Good Friday Time Trial on 2008-Mar-21. There were great improvements for two young riders - Cadet Kevin Stec who took a whopping minute and 5 seconds off of his previous best, and Junior rider Matteo Dal-Cin who will almost certainly crack the 20 minute barrier next year. It was also great to see Aaron Fillion out tonight for the first time in more than 4 years with a PB of 19:11, good for 2nd place, after the fast duo of Paul Datars and Warren MacDonald. Celia was as thrilled to tie her database PB as she was to get to her rehearsal before the downbeat. It was a fun season with many highlights. Now just one 40km Time Trial remains on 2008-Sep-21 near Fournier.

 
 

BESTS?
 
A 1 Datars, Paul & MacDonald, Warren OBC 18:44 48.043 1/65 TTT 1/1  
2 Fillion, Aaron  OBC 19:11 46.916 2/65 VAM 1/7  
3 Martel, Brad RWR 20:16 44.408 3/65 VBM 1/13 0.9828
4 Dal-Cin, Matteo  EUR 20:18 44.335 4/65 JUM 1/3 1.0731
5 van den Ham, Douglas  OBC 20:49 43.235 5/65 SEM 1/3 0.8980
6 Desbiens, Martin OBC/RDO 20:56 42.994 6/65 VAM 2/7 1.0024
7 Cornel, Logan  EUR 20:58 42.925 7/65 JUM 2/3 0.9928
8 Hanrahan, Mason EUR 21:00 42.857 8/65 JUM 3/3 0.9100
9 Schlatter, Sue  EMD 21:01 42.823 9/65 VBF 1/8 0.9281
10 Burge, Craig  WQW 21:02 42.789 10/65 VBM 2/13 1.0000
Christie, Greg  OBC/RWR 21:02 42.789 10/65 VCM 1/16 0.9555
12 Sudac, Rick  OBC/RWR 21:10 42.520 12/65 VCM 2/16 0.8778
13 Campbell, Colin  OBC 21:13 42.419 13/65 VBM 3/13 0.9789
14 Gerrard, David  OBC 21:22 42.122 14/65 VBM 4/13 1.0236
15 Corner, Doug  OBC 21:28 41.925 15/65 VCM 3/16 0.9792
16 Zappe, Erich RWR 21:34 41.731 16/65 VBM 5/13 0.8736
17 Cameron, Allen  OBC/RWR 21:42 41.475 17/65 VCM 4/16 0.9546
Sidhu, Joël ULT 21:42 41.475 17/65 SEM 2/3 0.8681
19 Morvan, Jacques  OBC 21:45 41.379 19/65 VDM 1/4 0.9614
20 Budgell, Glen  OBC 21:56 41.033 20/65 VCM 5/16 0.9595
21 Farish, Neil  OBC/RWR 21:58 40.971 21/65 VCM 6/16 0.9618
McKay, Allison  OBC/RDO 21:58 40.971 21/65 VBF 2/8 0.9507
23 Lennox, Marc OBC 22:05 40.755 23/65 VAM 3/7 1.0343
24 Posthuma, Hans  OBC 22:18 40.359 24/65 VCM 7/16 0.9321
25 Revesz, Erika  OBC 22:30 40.000 25/65 VCF 1/3 0.9200
26 Boulanger, Gaetan  OBC 22:57 39.216 26/65 VDM 2/4 0.9571
27 Grace, Darrin  OBC/EUR 22:59 39.159 27/65 VBM 6/13 0.9299
28 Reissner, Leslie OBC 23:05 38.989 28/65 VCM 8/16 0.9531
29 Stec, Kevin OBC 23:06 38.961 29/65 CAM 1/1 1.1474
30 Wilkins, Carl  OBC 23:22 38.516 30/65 SEM 3/3 0.9557
31 Burdett, Avery  OBC 23:24 38.462 31/65 VDM 3/4 0.9029
Wright, David OBC/RWR 23:24 38.462 31/65 VBM 7/13 1.0129
33 Bradley, Kathy  OBC 23:32 38.244 33/65 VAF 1/3 1.0150
34 James, Alison OBC 23:40 38.028 34/65 VAF 2/3 0.9645
35 Dorego, Jean-Louis OBC 23:42 37.975 35/65 VCM 9/16 0.9220
36 Stec, Artur OBC 23:46 37.868 36/65 VBM 8/13 0.8887
37 Paul, Richard  OBC 23:48 37.815 37/65 VCM 10/16 0.9484
38 Austen, Ian  OBC 23:56 37.604 38/65 VCM 11/16 0.9649
39 Leclair, Gilles OBC 23:58 37.552 39/65 VBM 9/13 1.0147
40 Coney, Michael OBC 24:04 37.396 40/65 VDM 4/4 0.9590
McInnis, Celia  OBC/ABC 24:04 37.396 40/65 VCF 2/3 1.0146
42 LaViolette, Nicole  OBC 24:10 37.241 42/65 VBF 3/8 0.9612
43 Armstrong, Brian OBC 24:15 37.113 43/65 VBM 10/13 0.8794
44 Imbrogno, Giorgio  OBC 24:16 37.088 44/65 VCM 12/16 0.9573
45 Langevin, Roger  OBC 24:20 36.986 45/65 VAM 4/7 0.9475
46 Henry, Mike OBC 24:23 36.910 46/65 VAM 5/7 0.8632
47 Hind, Terry OBC/EUR 24:26 36.835 47/65 VCM 13/16 0.8524
48 Janusauskas, Vytas  OBC 24:27 36.810 48/65 VCM 14/16 0.9321
49 Dionne, Suzanne  OBC 24:29 36.760 49/65 VBF 4/8 0.9518
50 McHugh, Craig OBC 24:31 36.710 50/65 VAM 6/7 1.6579
51 Bernard, Audrey APK 24:32 36.685 51/65 CAF 1/1 0.8530
52 Coney, Ingrid  OBC 24:37 36.561 52/65 VCF 3/3 0.9798
53 Deavy, Carol  OBC 24:42 36.437 53/65 VBF 5/8 1.0725
54 Marleau, Dianne  OBC/RWR 24:51 36.217 54/65 VBF 6/8 0.8638
55 Sinkus, Jason --- 25:04 35.904 55/65 VAM 7/7 1.0000
56 Ingham, Alison  OBC 25:08 35.809 56/65 VBF 7/8 0.9301
57 Lewis, Alex  OBC 25:34 35.202 57/65 VCM 15/16 0.9312
58 Gagné, Marc  OBC 25:35 35.179 58/65 VBM 11/13 0.9406
59 Rees, Stephanie  OBC 26:00 34.615 59/65 VAF 3/3 0.9305
60 Liechti, Hans-Peter OBC 26:04 34.527 60/65 VBM 12/13 1.0310
61 Rancourt, Jerome OBC 26:12 34.351 61/65 PWM 1/1 0.9943
62 Dupuis, Mike ABC 26:17 34.242 62/65 VCM 16/16 0.9754
63 Robitaille, Brian  OBC 26:32 33.920 63/65 VBM 13/13 0.8182
64 McLaren, Louise  OBC 27:01 33.313 64/65 VBF 8/8 0.9225
65 Rancourt, Nicolas OBC 31:04 28.970 65/65 BBM 1/1 0.9824
 
Average Speed of all of the above 65 finishes (975km in 25:15:15):38.607
>>>Average of the Average Speeds for these 65 finishes38.912<<<
 

The number of data records shown above is 65
The server processing of your query took: 0 wallclock secs ( 0.08 usr + 0.00 sys = 0.08 CPU)

Thanks to our Helpers: Gunter Hauschildt, Andrea McKay, Alex McKnight, Patrick Shaver, Douglas Van Den ham, Geoffrey Wright.

     


Mar 21 (Good Friday)
Apr 24
May 1 May 6 (10km) May 8 May 13 (10km) May 15 May 20 May 20 (10km) May 22 May 27 May 27 (10km) May 29
Jun 1 (40km) Jun 3 Jun 3 Jun 5 Jun 10 Jun 10 Jun 12 Jun 17 Jun 17 Jun 19 Jun 24 Jun 24 Jun 26
Jul 1 (cancelled - ) Jul 2 Jul 3 Jul 6 (40km) Jul 8 Jul 8 Jul 10 Jul 15 Jul 15 Jul 17 Jul 22 Jul 22 Jul 24 Jul 27 (40km) Jul 29 Jul 29 Jul 31
Aug 5 Aug 5 Aug 7 Aug 10 (40km) Aug 12 Aug 12 Aug 14 Aug 19 Aug 19 Aug 21 Aug 26 Aug 26 (Invitational) Aug 28
Sep 2 Sep 4 Sep 7 (40km) Sep 9
  Sep 11  
Sep 16 Sep 21 (40km) Sep 23 Sep 30

OTT Rankings
Best       Best by category
WTT Rankings for OBC Members
5 Best Speeds     5 Best Speeds by category
OBC Member Best Three 15km Rankings
Overall     by category     age-Hcap Female   age-Hcap Male
OBC BAR Ranking
Overall     by category     Rider "Consistency-Graph"
ABC BAR Ranking
Overall     by category     Rider "Consistency-Graph"
Other years
TT Calculator All TT People All TT events
ABC Home VVV Home
CKAP GOLD MEDAL
Other Links

Note: OTT data from 2003 through 2006-Apr-14 and 2007-Apr-06-? and WTT from 2008-? is taken from the official OBC site.

Please send your comments and suggestions to: Celia McInnis
Copyright © 1998-2011 Celia McInnis. All rights reserved. Links are welcomed.